Latest Coastal Weather Observations for Wilsons Promontory

IDT60701

Issued at 9:32 pm EST Friday 1 July 2016 (issued every 10 minutes, with the page automatically refreshed every 10 minutes)

About coastal observations | Map of coastal stations | Coastal observations for TAS | Marine services | Other Formats
Station Details ID: 085096 Name: WILSONS PROMONTORY LIGHTHOUSE Lat: -39.13 Lon: 146.42 Height: 95.0 m
Data from the previous 72 hours. | See also: Recent months at Wilsons Promontory
Date/Time
EST
Temp
°C
Wind Pressure Rain since
9am
mm
Weather Cloud Vis
km
Sea
Height
m
Swell
Dir  Spd
kts
Gust
kts
hPa Trend Height
m
Period
s
Dir
01/09:30pm 11.5 W 21 31 1019.2 - 0.6 - - - - - - -
01/09:07pm 11.3 WNW 17 27 1019.2 - 0.6 - - - - - - -
01/09:00pm 11.3 WNW 18 26 1019.4 - 0.6 - - - - - - -
01/08:31pm 11.1 W 20 30 1019.2 - 0.6 - - - - - - -
01/08:30pm 11.1 W 20 29 1019.2 - 0.6 - - - - - - -
01/08:00pm 11.7 W 21 33 1019.1 - 0.6 - - - - - - -
01/07:34pm 11.9 W 24 35 1018.7 - 0.6 - - - - - - -
01/07:30pm 12.0 W 24 33 1018.7 - 0.6 - - - - - - -
01/07:00pm 11.4 W 19 32 1018.7 - 0.6 - - - - - - -
01/06:30pm 11.3 W 19 29 1018.6 - 0.4 - - - - - - -
01/06:12pm 11.1 W 20 30 1018.2 - 0.4 - - - - - - -
01/06:00pm 11.3 W 20 26 1018.4 - 0.4 - - - - - - -
01/05:30pm 11.4 W 21 31 1017.9 - 0.4 - - - - - - -
01/05:00pm 11.2 W 22 32 1017.4 - 0.4 - - - - - - -
01/04:48pm 11.1 W 20 30 1017.3 - 0.4 - - - - - - -
01/04:30pm 10.8 W 21 28 1017.3 - 0.4 - - - - - - -
01/04:00pm 10.7 W 22 32 1017.2 - 0.4 - - - - - - -
01/03:30pm 10.8 W 19 30 1017.0 - 0.4 - - - - - - -
01/03:03pm 11.6 W 19 33 1016.7 - 0.4 - - - - - - -
01/03:00pm 11.7 W 18 26 1017.0 - 0.4 - - - - - - -
01/02:30pm 11.5 W 23 31 1016.5 - 0.4 - - - - - - -
01/02:02pm 11.6 W 22 32 1016.3 - 0.4 - - - - - - -
01/02:00pm 11.6 W 24 32 1016.1 - 0.4 - - - - - - -
01/01:30pm 11.6 W 23 33 1016.0 - 0.4 - - - - - - -
01/01:00pm 11.7 W 26 34 1015.8 - 0.4 - - - - - - -
01/12:30pm 11.7 W 23 34 1016.0 - 0.4 - - - - - - -
01/12:00pm 11.5 W 28 39 1015.7 - 0.4 - - - - - - -
01/11:30am 10.5 W 24 38 1015.8 - 0.2 - - - - - - -
01/11:28am 10.5 W 24 38 1015.7 - 0.2 - - - - - - -
01/11:25am 10.7 W 22 38 1015.8 - 0.2 - - - - - - -
01/11:00am 10.1 WSW 35 40 1015.3 - 0.2 - - - - - - -
01/10:48am 10.4 WSW 34 44 1015.4 - 0.2 - - - - - - -
01/10:40am 11.3 WSW 40 44 1014.7 - 0.2 - - - - - - -
01/10:37am 11.3 WSW 28 40 1015.2 - 0.2 - - - - - - -
01/10:30am 11.2 WSW 28 44 1015.2 - 0.2 - - - - - - -
01/10:26am 10.6 WSW 39 44 1014.8 - 0.2 - - - - - - -
01/10:03am 11.1 W 24 34 1015.0 - 0.2 - - - - - - -
01/10:00am 10.9 W 27 35 1015.1 - 0.2 - - - - - - -
01/09:51am 10.8 WSW 31 36 1014.7 - 0.0 - - - - - - -
01/09:42am 11.8 W 19 29 1014.9 - 0.0 - - - - - - -
01/09:30am 12.3 W 21 32 1014.6 - 0.0 - - - - - - -
01/09:25am 12.3 W 20 32 1014.7 - 0.0 - - - - - - -
01/09:00am 12.4 WSW 31 34 1014.1 - 6.6 - - - - - - -
01/08:30am 12.1 WSW 33 37 1013.9 - 6.6 - - - - - - -
01/08:00am 11.8 WSW 32 35 1013.0 - 6.6 - - - - - - -
01/07:30am 11.8 SW 31 37 1012.5 - 6.6 - - - - - - -
01/07:00am 11.9 SW 28 38 1012.0 - 6.6 - - - - - - -
01/06:45am 11.7 SW 33 36 1011.7 - 6.6 - - - - - - -
01/06:30am 11.6 SW 21 32 1011.1 - 6.6 - - - - - - -
01/06:22am 11.7 SW 17 33 1011.3 - 6.6 - - - - - - -
01/06:19am 11.6 SW 19 33 1011.3 - 6.6 - - - - - - -
01/06:00am 11.4 SW 31 36 1011.0 - 6.6 - - - - - - -
01/05:30am 11.0 WSW 26 30 1010.6 - 6.6 - - - - - - -
01/05:27am 10.7 WSW 26 30 1010.6 - 6.6 - - - - - - -
01/05:10am 9.7 W 23 29 1010.5 - 6.6 - - - - - - -
01/05:00am 8.8 WNW 22 28 1010.3 - 6.4 - - - - - - -
01/04:42am 8.6 WNW 23 34 1010.0 - 6.2 - - - - - - -
01/04:30am 8.6 WNW 26 35 1009.7 - 6.2 - - - - - - -
01/04:00am 8.7 WNW 23 34 1009.1 - 6.2 - - - - - - -
01/03:33am 8.5 WNW 27 37 1008.8 - 6.2 - - - - - - -
01/03:30am 8.6 WNW 28 37 1008.8 - 6.2 - - - - - - -
01/03:22am 8.5 WNW 27 37 1008.6 - 6.2 - - - - - - -
01/03:12am 8.5 WNW 30 36 1008.7 - 6.2 - - - - - - -
01/03:00am 8.4 WNW 19 30 1009.2 - 6.2 - - - - - - -
01/02:30am 8.6 WNW 20 31 1008.7 - 5.6 - - - - - - -
01/02:00am 9.0 WNW 17 30 1008.5 - 5.6 - - - - - - -
01/01:41am 8.9 WNW 19 29 1008.0 - 5.6 - - - - - - -
01/01:30am 8.9 WNW 19 26 1007.7 - 5.6 - - - - - - -
01/01:00am 8.2 W 19 27 1007.7 - 5.4 - - - - - - -
01/12:33am 8.2 W 20 30 1007.7 - 4.0 - - - - - - -
01/12:30am 8.1 W 21 30 1007.6 - 3.8 - - - - - - -
01/12:00am 8.3 W 24 34 1007.3 - 2.0 - - - - - - -
 
Date/Time
EST
Temp
°C
Wind Pressure Rain since
9am
mm
Weather Cloud Vis
km
Sea
Height
m
Swell
Dir  Spd
kts
Gust
kts
hPa Trend Height
m
Period
s
Dir
30/11:30pm 9.2 WNW 21 34 1006.8 - 1.4 - - - - - - -
30/11:00pm 8.8 NW 15 25 1006.9 - 1.4 - - - - - - -
30/10:30pm 8.7 NW 13 24 1006.5 - 1.4 - - - - - - -
30/10:02pm 8.6 NW 15 27 1006.1 - 1.4 - - - - - - -
30/10:00pm 8.6 NW 14 27 1006.2 - 1.4 - - - - - - -
30/09:54pm 8.6 NW 15 25 1006.1 - 1.4 - - - - - - -
30/09:30pm 8.6 WNW 11 30 1006.0 - 1.4 - - - - - - -
30/09:24pm 8.7 NW 15 30 1005.8 - 1.4 - - - - - - -
30/09:00pm 8.7 N 7 14 1006.2 - 1.4 - - - - - - -
30/08:44pm 8.8 WNW 15 26 1006.0 - 1.4 - - - - - - -
30/08:30pm 8.9 WNW 13 23 1006.0 - 1.4 - - - - - - -
30/08:05pm 9.0 WNW 15 26 1005.8 - 1.4 - - - - - - -
30/08:00pm 8.9 WNW 13 21 1005.8 - 1.4 - - - - - - -
30/07:30pm 9.0 NNW 16 27 1005.7 - 1.4 - - - - - - -
30/07:10pm 9.0 NNW 15 26 1005.5 - 1.4 - - - - - - -
30/07:00pm 9.0 NW 14 29 1005.7 - 1.4 - - - - - - -
30/06:30pm 9.4 NW 16 29 1005.7 - 1.2 - - - - - - -
30/06:06pm 10.4 NNW 15 37 1005.3 - 0.6 - - - - - - -
30/06:00pm 10.8 NNW 12 37 1005.5 - 0.4 - - - - - - -
30/05:59pm 10.8 NNW 12 37 1005.3 - 0.4 - - - - - - -
30/05:51pm 11.0 WNW 15 27 1005.3 - 0.4 - - - - - - -
30/05:30pm 11.4 N 10 19 1005.1 - 0.4 - - - - - - -
30/05:00pm 11.5 NNW 15 30 1004.6 - 0.4 - - - - - - -
30/04:59pm 11.6 NNW 15 30 1004.4 - 0.4 - - - - - - -
30/04:30pm 11.5 NNW 13 21 1004.4 - 0.4 - - - - - - -
30/04:18pm 11.4 N 15 25 1004.5 - 0.4 - - - - - - -
30/04:13pm 11.5 N 17 25 1004.4 - 0.4 - - - - - - -
30/04:00pm 11.1 N 6 14 1004.6 - 0.4 - - - - - - -
30/03:30pm 10.7 N 8 12 1004.6 - 0.4 - - - - - - -
30/03:00pm 10.9 N 8 11 1004.8 - 0.2 - - - - - - -
30/02:30pm 12.0 N 10 21 1004.7 - 0.0 - - - - - - -
30/02:00pm 12.1 N 10 20 1005.0 - 0.0 - - - - - - -
30/01:30pm 12.3 N 9 16 1005.6 - 0.0 - - - - - - -
30/01:00pm 12.0 N 9 17 1006.0 - 0.0 - - - - - - -
30/12:30pm 11.4 N 9 13 1006.7 - 0.0 - - - - - - -
30/12:00pm 10.9 NNE 9 14 1007.6 - 0.0 - - - - - - -
30/11:30am 11.1 NNE 12 17 1008.1 - 0.0 - - - - - - -
30/11:00am 11.9 N 12 20 1008.9 - 0.0 - - - - - - -
30/10:32am 11.9 N 15 25 1009.2 - 0.0 - - - - - - -
30/10:30am 11.9 N 14 25 1009.2 - 0.0 - - - - - - -
30/10:28am 11.9 N 15 25 1009.2 - 0.0 - - - - - - -
30/10:00am 11.7 N 13 21 1009.7 - 0.0 - - - - - - -
30/09:43am 11.7 N 15 29 1009.9 - 0.0 - - - - - - -
30/09:30am 11.7 NNE 12 20 1010.2 - 0.0 - - - - - - -
30/09:00am 11.6 N 13 27 1010.4 - 0.2 - - - - - - -
30/08:30am 11.2 NNE 15 25 1010.2 - 0.2 - - - - - - -
30/08:26am 11.0 NNE 15 25 1010.3 - 0.2 - - - - - - -
30/08:00am 10.5 NNE 13 20 1010.6 - 0.2 - - - - - - -
30/07:30am 10.4 N 13 22 1011.0 - 0.2 - - - - - - -
30/07:00am 10.6 NNE 10 16 1011.4 - 0.2 - - - - - - -
30/06:30am 10.7 NNE 12 22 1011.7 - 0.2 - - - - - - -
30/06:00am 10.8 NNE 11 20 1012.3 - 0.2 - - - - - - -
30/05:30am 10.9 N 10 15 1013.0 - 0.2 - - - - - - -
30/05:00am 10.8 N 10 16 1013.4 - 0.2 - - - - - - -
30/04:30am 11.0 N 10 17 1013.7 - 0.2 - - - - - - -
30/04:00am 10.7 N 10 17 1014.2 - 0.2 - - - - - - -
30/03:30am 10.5 N 7 15 1014.8 - 0.2 - - - - - - -
30/03:00am 10.8 N 6 14 1015.4 - 0.2 - - - - - - -
30/02:30am 10.9 N 8 15 1015.7 - 0.2 - - - - - - -
30/02:00am 10.9 N 6 9 1016.3 - 0.2 - - - - - - -
30/01:30am 11.2 NW 13 15 1016.6 - 0.2 - - - - - - -
30/01:00am 11.0 WNW 17 23 1017.0 - 0.2 - - - - - - -
30/12:30am 10.9 WNW 14 20 1017.5 - 0.2 - - - - - - -
30/12:00am 11.2 WNW 8 15 1018.3 - 0.2 - - - - - - -
 
Date/Time
EST
Temp
°C
Wind Pressure Rain since
9am
mm
Weather Cloud Vis
km
Sea
Height
m
Swell
Dir  Spd
kts
Gust
kts
hPa Trend Height
m
Period
s
Dir
29/11:30pm 11.4 WNW 7 14 1018.4 - 0.2 - - - - - - -
29/11:00pm 11.9 NNW 7 14 1018.4 - 0.2 - - - - - - -
29/10:30pm 11.9 NW 10 17 1018.3 - 0.2 - - - - - - -
29/10:00pm 11.7 N 8 13 1018.7 - 0.2 - - - - - - -
29/09:30pm 11.7 N 7 11 1019.1 - 0.2 - - - - - - -
29/09:00pm 11.8 N 9 14 1019.4 - 0.2 - - - - - - -
29/08:30pm 11.8 N 8 14 1019.7 - 0.2 - - - - - - -
29/08:00pm 11.7 N 9 12 1020.0 - 0.2 - - - - - - -
29/07:30pm 12.1 NNW 11 15 1020.2 - 0.2 - - - - - - -
29/07:00pm 12.3 NNW 10 18 1020.4 - 0.2 - - - - - - -
29/06:30pm 12.3 WNW 10 18 1020.4 - 0.2 - - - - - - -
29/06:13pm 12.7 WNW 15 27 1020.2 - 0.2 - - - - - - -
29/06:00pm 12.6 WNW 13 24 1020.6 - 0.2 - - - - - - -
29/05:37pm 12.6 NNW 15 25 1020.6 - 0.2 - - - - - - -
29/05:30pm 12.4 NNW 14 21 1020.9 - 0.2 - - - - - - -
29/05:00pm 12.5 N 6 12 1021.1 - 0.2 - - - - - - -
29/04:30pm 12.8 NW 7 22 1021.2 - 0.2 - - - - - - -
29/04:00pm 12.9 WNW 12 19 1021.3 - 0.2 - - - - - - -
29/03:30pm 13.2 WSW 7 13 1021.7 - 0.2 - - - - - - -
29/03:06pm 13.6 WNW 16 22 1021.7 - 0.2 - - - - - - -
29/03:00pm 13.7 WNW 6 12 1022.0 - 0.2 - - - - - - -
29/02:30pm 13.0 WNW 11 20 1022.1 - 0.2 - - - - - - -
29/02:00pm 13.0 N 6 13 1022.3 - 0.0 - - - - - - -
29/01:30pm 12.9 WNW 11 19 1022.5 - 0.0 - - - - - - -
29/01:00pm 12.5 WNW 15 27 1022.8 - 0.0 - - - - - - -
29/12:30pm 12.4 WNW 17 30 1023.3 - 0.0 - - - - - - -
29/12:00pm 12.6 WNW 15 26 1023.7 - 0.0 - - - - - - -
29/11:39am 12.5 WNW 16 28 1023.6 - 0.0 - - - - - - -
29/11:30am 12.5 W 11 26 1024.0 - 0.0 - - - - - - -
29/11:00am 12.5 WNW 14 26 1024.5 - 0.0 - - - - - - -
29/10:30am 12.6 WNW 12 23 1024.7 - 0.0 - - - - - - -
29/10:00am 12.4 W 9 20 1024.8 - 0.0 - - - - - - -
29/09:30am 12.1 NW 10 21 1024.7 - 0.0 - - - - - - -
29/09:00am 11.8 S 6 29 1024.8 - 0.0 - - - - - - -
29/08:31am 11.8 WNW 15 29 1024.3 - 0.0 - - - - - - -
29/08:30am 11.8 WNW 15 23 1024.3 - 0.0 - - - - - - -
29/08:00am 11.5 NW 11 22 1024.2 - 0.0 - - - - - - -
29/07:30am 11.3 WNW 7 27 1023.6 - 0.0 - - - - - - -
29/07:00am 11.8 WNW 18 33 1023.0 - 0.0 - - - - - - -
29/06:30am 11.9 WNW 20 40 1022.7 - 0.0 - - - - - - -
29/06:26am 11.9 WNW 20 40 1022.8 - 0.0 - - - - - - -
29/06:00am 11.9 WNW 18 29 1022.4 - 0.0 - - - - - - -
29/05:30am 11.9 WNW 19 30 1022.2 - 0.0 - - - - - - -
29/05:00am 12.0 W 19 32 1022.2 - 0.0 - - - - - - -
29/04:30am 12.0 W 21 37 1022.0 - 0.0 - - - - - - -
29/04:00am 12.1 W 23 37 1022.1 - 0.0 - - - - - - -
29/03:30am 11.9 WNW 22 37 1022.2 - 0.0 - - - - - - -
29/03:00am 11.8 WNW 22 32 1022.5 - 0.0 - - - - - - -
29/02:30am 11.7 WNW 16 32 1022.4 - 0.0 - - - - - - -
29/02:00am 11.8 WNW 18 34 1022.3 - 0.0 - - - - - - -
29/01:30am 11.8 WNW 20 39 1022.3 - 0.0 - - - - - - -
29/01:00am 11.8 WNW 23 34 1022.2 - 0.0 - - - - - - -
29/12:30am 11.9 WNW 25 37 1022.0 - 0.0 - - - - - - -
29/12:00am 11.8 WNW 26 42 1022.6 - 0.0 - - - - - - -
 
Date/Time
EST
Temp
°C
Wind Pressure Rain since
9am
mm
Weather Cloud Vis
km
Sea
Height
m
Swell
Dir  Spd
kts
Gust
kts
hPa Trend Height
m
Period
s
Dir
28/11:30pm 11.7 WNW 25 40 1022.6 - 0.0 - - - - - - -
28/11:00pm 11.8 WNW 25 36 1022.4 - 0.0 - - - - - - -
28/10:30pm 11.9 WNW 20 36 1022.9 - 0.0 - - - - - - -
28/10:19pm 12.0 WNW 15 30 1022.7 - 0.0 - - - - - - -
28/10:00pm 11.8 WNW 12 24 1022.7 - 0.0 - - - - - - -

Other Formats:

Comma delimited format used in spreadsheet applications
http://www.bom.gov.au/fwo/IDT60701/IDT60701.94893.axf

JavaScript Object Notation format (JSON) in row-major order
http://www.bom.gov.au/fwo/IDT60701/IDT60701.94893.json